createdAt,value
2022-09-11T00:01:16.287Z,59.39
2022-09-11T00:03:44.602Z,58.97
2022-09-11T00:06:13.146Z,58.35
2022-09-11T00:08:41.440Z,58.80
2022-09-11T00:11:13.613Z,59.83
2022-09-11T00:13:40.637Z,58.69
2022-09-11T00:16:18.886Z,58.69
2022-09-11T00:18:46.742Z,59.92
2022-09-11T00:21:13.243Z,59.78
2022-09-11T00:23:39.804Z,58.30
2022-09-11T00:26:06.581Z,59.03
2022-09-11T00:28:34.371Z,58.00
2022-09-11T00:31:05.158Z,58.66
2022-09-11T00:33:33.388Z,57.46
2022-09-11T00:36:24.319Z,58.02
2022-09-11T00:38:51.248Z,59.10
2022-09-11T00:41:22.691Z,58.24
2022-09-11T00:44:05.125Z,57.27
2022-09-11T00:46:53.267Z,56.51
2022-09-11T00:49:32.520Z,58.74
2022-09-11T00:52:13.634Z,58.24
2022-09-11T00:54:49.500Z,60.68
2022-09-11T00:57:20.596Z,59.49
2022-09-11T00:59:48.255Z,58.80
2022-09-11T01:02:18.943Z,59.52
2022-09-11T01:04:45.667Z,58.01
2022-09-11T01:07:15.323Z,58.46
2022-09-11T01:09:42.793Z,60.32
2022-09-11T01:12:31.020Z,60.61
2022-09-11T01:15:04.036Z,60.02
2022-09-11T01:17:47.870Z,59.73
2022-09-11T01:20:20.372Z,60.10
2022-09-11T01:23:19.399Z,60.24
2022-09-11T01:26:18.853Z,60.31
2022-09-11T01:29:15.882Z,60.02
2022-09-11T01:31:53.506Z,60.57
2022-09-11T01:34:45.006Z,61.86
2022-09-11T01:37:21.721Z,60.22
2022-09-11T01:39:58.796Z,59.21
2022-09-11T01:42:31.383Z,58.40
2022-09-11T01:44:59.390Z,57.25
2022-09-11T01:47:28.319Z,56.22
2022-09-11T01:50:05.811Z,56.92
2022-09-11T01:52:39.681Z,55.70
2022-09-11T01:55:19.006Z,60.94
2022-09-11T01:57:52.213Z,59.57
2022-09-11T02:00:19.702Z,57.08
2022-09-11T02:02:59.454Z,58.41
2022-09-11T02:05:35.463Z,57.90
2022-09-11T02:08:16.534Z,56.59
2022-09-11T02:10:52.083Z,56.62
2022-09-11T02:13:37.222Z,55.87
2022-09-11T02:16:17.390Z,55.67
2022-09-11T02:18:50.122Z,55.16
2022-09-11T02:21:16.622Z,54.98
2022-09-11T02:23:43.248Z,54.22
2022-09-11T02:26:13.499Z,53.60
2022-09-11T02:28:40.449Z,52.95
2022-09-11T02:31:07.745Z,53.88
2022-09-11T02:33:36.934Z,53.33
2022-09-11T02:36:39.355Z,52.29
2022-09-11T02:39:25.507Z,53.31
2022-09-11T02:42:27.201Z,53.07
2022-09-11T02:45:30.201Z,52.88
2022-09-11T02:48:28.222Z,53.91
2022-09-11T02:51:25.859Z,55.28
2022-09-11T02:54:19.499Z,56.42
2022-09-11T02:56:52.432Z,55.76
2022-09-11T02:59:30.070Z,54.56
2022-09-11T03:02:02.103Z,54.04
2022-09-11T03:04:31.231Z,53.92
2022-09-11T03:06:58.895Z,52.97
2022-09-11T03:09:25.555Z,52.91
2022-09-11T03:11:58.272Z,53.16
2022-09-11T03:14:24.786Z,54.55
2022-09-11T03:16:51.402Z,54.34
2022-09-11T03:19:19.551Z,53.45
2022-09-11T03:21:46.067Z,53.43
2022-09-11T03:24:14.429Z,54.15
2022-09-11T03:26:41.461Z,53.57
2022-09-11T03:29:08.903Z,53.66
2022-09-11T03:31:39.080Z,54.22
2022-09-11T03:34:06.544Z,53.62
2022-09-11T03:36:36.979Z,54.04
2022-09-11T03:39:04.970Z,54.68
2022-09-11T03:41:32.463Z,53.88
2022-09-11T03:43:59.753Z,53.95
2022-09-11T03:46:26.306Z,53.64
2022-09-11T03:48:53.244Z,53.09
2022-09-11T03:51:21.176Z,53.76
2022-09-11T03:53:48.575Z,53.63
2022-09-11T03:56:16.019Z,54.20
2022-09-11T03:58:47.578Z,54.67
2022-09-11T04:01:19.369Z,54.37
2022-09-11T04:03:46.459Z,54.49
2022-09-11T04:06:21.651Z,54.19
2022-09-11T04:08:49.770Z,55.91
2022-09-11T04:11:17.005Z,55.38
2022-09-11T04:13:44.424Z,54.69
2022-09-11T04:16:16.771Z,56.91
2022-09-11T04:18:46.625Z,56.42
2022-09-11T04:21:17.276Z,56.82
2022-09-11T04:23:50.392Z,56.13
2022-09-11T04:26:19.687Z,57.10
2022-09-11T04:28:51.271Z,55.58
2022-09-11T04:31:20.099Z,56.31
2022-09-11T04:33:47.938Z,55.24
2022-09-11T04:36:18.001Z,55.72
2022-09-11T04:38:45.880Z,54.92
2022-09-11T04:41:15.026Z,55.11
2022-09-11T04:43:42.360Z,54.86
2022-09-11T04:46:17.292Z,54.47
2022-09-11T04:48:45.703Z,54.51
2022-09-11T04:51:32.094Z,54.11
2022-09-11T04:54:00.450Z,54.47
2022-09-11T04:56:34.841Z,54.60
2022-09-11T04:59:06.545Z,53.88
2022-09-11T05:01:35.706Z,54.65
2022-09-11T05:04:03.122Z,53.94
2022-09-11T05:06:30.675Z,54.17
2022-09-11T05:09:05.243Z,54.37
2022-09-11T05:11:34.655Z,54.07
2022-09-11T05:14:01.669Z,54.22
2022-09-11T05:16:31.218Z,53.53
2022-09-11T05:18:59.019Z,53.82
2022-09-11T05:21:27.329Z,53.15
2022-09-11T05:23:55.935Z,52.89
2022-09-11T05:26:26.603Z,53.75
2022-09-11T05:28:55.895Z,53.42
2022-09-11T05:31:25.432Z,53.72
2022-09-11T05:33:55.850Z,53.62
2022-09-11T05:36:23.634Z,53.78
2022-09-11T05:38:50.249Z,54.07
2022-09-11T05:41:17.382Z,53.34
2022-09-11T05:43:44.315Z,53.35
2022-09-11T05:46:17.278Z,53.01
2022-09-11T05:48:46.212Z,52.97
2022-09-11T05:51:15.847Z,53.27
2022-09-11T05:53:42.891Z,53.63
2022-09-11T05:56:17.658Z,52.97
2022-09-11T05:58:46.592Z,52.98
2022-09-11T06:01:17.185Z,53.01
2022-09-11T06:03:48.438Z,52.91
2022-09-11T06:06:18.036Z,53.20
2022-09-11T06:08:45.658Z,52.25
2022-09-11T06:11:14.214Z,52.21
2022-09-11T06:13:43.211Z,52.31
2022-09-11T06:16:18.417Z,54.21
2022-09-11T06:18:50.443Z,52.19
2022-09-11T06:21:21.940Z,49.71
2022-09-11T06:23:57.774Z,48.25
2022-09-11T06:26:26.091Z,48.06
2022-09-11T06:28:54.523Z,47.82
2022-09-11T06:31:25.972Z,47.31
2022-09-11T06:33:54.335Z,47.38
2022-09-11T06:36:24.185Z,48.01
2022-09-11T06:38:55.854Z,48.37
2022-09-11T06:41:25.546Z,49.36
2022-09-11T06:43:56.462Z,49.52
2022-09-11T06:46:25.268Z,50.16
2022-09-11T06:48:55.709Z,51.27
2022-09-11T06:51:25.638Z,51.45
2022-09-11T06:53:56.121Z,51.38
2022-09-11T06:56:22.733Z,50.37
2022-09-11T06:58:51.083Z,51.47
2022-09-11T07:01:20.382Z,51.61
2022-09-11T07:03:54.520Z,51.85
2022-09-11T07:06:27.186Z,52.20
2022-09-11T07:09:00.807Z,51.54
2022-09-11T07:11:35.107Z,51.18
2022-09-11T07:14:05.762Z,50.95
2022-09-11T07:16:36.527Z,50.72
2022-09-11T07:19:09.184Z,50.59
2022-09-11T07:21:37.152Z,51.68
2022-09-11T07:24:05.065Z,52.18
2022-09-11T07:26:38.788Z,51.45
2022-09-11T07:29:12.850Z,50.56
2022-09-11T07:31:39.474Z,50.72
2022-09-11T07:34:06.749Z,51.25
2022-09-11T07:36:35.078Z,51.39
2022-09-11T07:39:06.142Z,51.75
2022-09-11T07:41:41.428Z,51.19
2022-09-11T07:44:15.229Z,50.66
2022-09-11T07:46:41.826Z,50.59
2022-09-11T07:49:11.241Z,50.52
2022-09-11T07:51:40.710Z,49.90
2022-09-11T07:54:09.757Z,50.80
2022-09-11T07:56:38.081Z,50.10
2022-09-11T07:59:08.582Z,49.89
2022-09-11T08:01:37.785Z,49.34
2022-09-11T08:04:08.017Z,50.36
2022-09-11T08:06:37.450Z,51.21
2022-09-11T08:09:12.325Z,50.83
2022-09-11T08:11:45.791Z,50.99
2022-09-11T08:14:13.723Z,50.15
2022-09-11T08:16:41.842Z,51.17
2022-09-11T08:19:16.550Z,50.54
2022-09-11T08:21:43.578Z,49.75
2022-09-11T08:24:15.090Z,50.48
2022-09-11T08:26:48.137Z,49.72
2022-09-11T08:29:18.171Z,50.77
2022-09-11T08:31:45.884Z,50.69
2022-09-11T08:34:14.118Z,50.77
2022-09-11T08:36:41.487Z,50.86
2022-09-11T08:39:09.710Z,50.12
2022-09-11T08:41:53.661Z,50.86
2022-09-11T08:44:27.450Z,50.58
2022-09-11T08:47:07.622Z,49.98
2022-09-11T08:49:39.741Z,50.23
2022-09-11T08:52:08.691Z,50.33
2022-09-11T08:54:38.128Z,49.49
2022-09-11T08:57:29.477Z,49.77
2022-09-11T09:00:18.687Z,49.13
2022-09-11T09:03:12.431Z,49.14
2022-09-11T09:05:53.521Z,49.71
2022-09-11T09:08:51.023Z,50.12
2022-09-11T09:11:30.361Z,49.37
2022-09-11T09:14:38.038Z,49.19
2022-09-11T09:17:28.836Z,48.93
2022-09-11T09:20:11.066Z,48.72
2022-09-11T09:22:55.013Z,48.92
2022-09-11T09:25:23.861Z,49.40
2022-09-11T09:28:14.684Z,49.88
2022-09-11T09:31:07.316Z,49.05
2022-09-11T09:33:42.137Z,48.82
2022-09-11T09:36:27.055Z,48.99
2022-09-11T09:38:54.603Z,48.18
2022-09-11T09:41:56.781Z,48.54
2022-09-11T09:44:54.949Z,48.97
2022-09-11T09:47:22.325Z,48.64
2022-09-11T09:49:51.543Z,49.21
2022-09-11T09:52:25.399Z,49.65
2022-09-11T09:54:56.760Z,49.92
2022-09-11T09:57:27.187Z,49.28
2022-09-11T10:00:08.774Z,49.34
2022-09-11T10:02:43.189Z,49.00
2022-09-11T10:05:13.437Z,49.39
2022-09-11T10:07:47.389Z,49.87
2022-09-11T10:10:29.889Z,49.08
2022-09-11T10:13:17.994Z,47.87
2022-09-11T10:15:49.449Z,47.89
2022-09-11T10:18:40.170Z,48.59
2022-09-11T10:21:12.345Z,47.71
2022-09-11T10:23:50.468Z,46.04
2022-09-11T10:26:23.406Z,46.73
2022-09-11T10:28:50.625Z,46.12
2022-09-11T10:31:18.582Z,46.16
2022-09-11T10:33:56.420Z,45.59
2022-09-11T10:36:27.104Z,45.07
2022-09-11T10:38:55.268Z,45.50
2022-09-11T10:41:26.043Z,45.28
2022-09-11T10:44:11.316Z,46.30
2022-09-11T10:46:42.358Z,43.84
2022-09-11T10:49:11.746Z,42.82
2022-09-11T10:51:44.330Z,43.32
2022-09-11T10:54:20.118Z,42.89
2022-09-11T10:57:00.206Z,42.13
2022-09-11T10:59:36.491Z,42.89
2022-09-11T11:02:03.920Z,42.60
2022-09-11T11:04:32.232Z,42.84
2022-09-11T11:07:13.384Z,42.77
2022-09-11T11:09:50.721Z,42.36
2022-09-11T11:12:31.882Z,42.96
2022-09-11T11:15:20.060Z,40.99
2022-09-11T11:18:15.982Z,39.17
2022-09-11T11:21:07.567Z,39.87
2022-09-11T11:23:49.554Z,41.03
2022-09-11T11:26:36.684Z,39.97
2022-09-11T11:29:35.492Z,40.01
2022-09-11T11:32:30.274Z,39.86
2022-09-11T11:35:23.666Z,40.18
2022-09-11T11:37:55.821Z,40.74
2022-09-11T11:40:36.866Z,40.31
2022-09-11T11:43:05.349Z,40.67
2022-09-11T11:46:02.344Z,40.78
2022-09-11T11:48:58.713Z,41.51
2022-09-11T11:51:36.095Z,42.67
2022-09-11T11:54:27.561Z,43.62
2022-09-11T11:56:59.879Z,41.68
2022-09-11T11:59:48.812Z,40.97
2022-09-11T12:02:24.428Z,41.00
2022-09-11T12:05:17.074Z,39.82
2022-09-11T12:07:47.278Z,39.08
2022-09-11T12:10:30.030Z,38.87
2022-09-11T12:13:01.375Z,39.54
2022-09-11T12:15:32.259Z,38.89
2022-09-11T12:18:12.079Z,38.64
2022-09-11T12:20:39.090Z,38.26
2022-09-11T12:23:07.672Z,39.43
2022-09-11T12:25:35.431Z,39.59
2022-09-11T12:28:25.571Z,39.51
2022-09-11T12:31:05.119Z,39.92
2022-09-11T12:33:41.050Z,37.86
2022-09-11T12:36:17.448Z,39.75
2022-09-11T12:38:50.102Z,37.59
2022-09-11T12:41:25.458Z,37.19
2022-09-11T12:43:54.960Z,36.41
2022-09-11T12:46:21.848Z,36.75
2022-09-11T12:49:17.837Z,37.24
2022-09-11T12:51:43.487Z,38.53
2022-09-11T12:54:18.928Z,38.81
2022-09-11T12:57:05.537Z,37.65
2022-09-11T12:59:38.490Z,37.43
2022-09-11T13:02:38.805Z,37.50
2022-09-11T13:05:24.766Z,38.43
2022-09-11T13:07:56.637Z,38.52
2022-09-11T13:10:36.407Z,37.80
2022-09-11T13:13:36.932Z,39.01
2022-09-11T13:16:30.989Z,38.58
2022-09-11T13:19:13.354Z,37.93
2022-09-11T13:21:49.320Z,37.80
2022-09-11T13:24:32.108Z,37.57
2022-09-11T13:27:18.830Z,38.01
2022-09-11T13:29:48.454Z,38.04
2022-09-11T13:32:18.037Z,38.03
2022-09-11T13:34:48.928Z,38.13
2022-09-11T13:37:43.278Z,38.01
2022-09-11T13:40:20.741Z,38.25
2022-09-11T13:42:48.847Z,39.19
2022-09-11T13:45:18.936Z,37.98
2022-09-11T13:47:46.134Z,39.22
2022-09-11T13:50:15.798Z,37.97
2022-09-11T13:52:44.575Z,39.56
2022-09-11T13:55:19.031Z,37.89
2022-09-11T13:57:55.165Z,38.13
2022-09-11T14:00:44.766Z,36.79
2022-09-11T14:03:24.386Z,36.87
2022-09-11T14:05:54.261Z,36.92
2022-09-11T14:08:27.289Z,38.27
2022-09-11T14:10:57.834Z,36.59
2022-09-11T14:13:36.156Z,36.97
2022-09-11T14:16:05.917Z,36.66
2022-09-11T14:18:40.995Z,37.64
2022-09-11T14:21:17.855Z,36.24
2022-09-11T14:23:49.733Z,35.95
2022-09-11T14:26:19.419Z,38.00
2022-09-11T14:28:55.775Z,38.24
2022-09-11T14:31:41.478Z,36.49
2022-09-11T14:34:42.005Z,37.53
2022-09-11T14:37:14.503Z,35.23
2022-09-11T14:39:47.772Z,36.93
2022-09-11T14:42:17.580Z,35.60
2022-09-11T14:44:44.432Z,36.18
2022-09-11T14:47:17.466Z,36.15
2022-09-11T14:49:48.043Z,36.29
2022-09-11T14:52:20.495Z,36.43
2022-09-11T14:54:47.852Z,35.58
2022-09-11T14:57:20.630Z,35.78
2022-09-11T14:59:47.781Z,36.56
2022-09-11T15:02:17.689Z,35.29
2022-09-11T15:04:46.146Z,34.95
2022-09-11T15:07:15.135Z,36.46
2022-09-11T15:09:42.597Z,36.19
2022-09-11T15:12:11.201Z,36.32
2022-09-11T15:14:55.862Z,35.41
2022-09-11T15:17:25.130Z,36.29
2022-09-11T15:19:52.907Z,35.79
2022-09-11T15:22:19.578Z,36.72
2022-09-11T15:24:46.988Z,37.93
2022-09-11T15:27:13.803Z,36.54
2022-09-11T15:29:42.702Z,36.94
2022-09-11T15:32:10.294Z,36.83
2022-09-11T15:34:38.529Z,37.19
2022-09-11T15:37:05.406Z,36.98
2022-09-11T15:39:31.993Z,36.76
2022-09-11T15:41:59.134Z,37.67
2022-09-11T15:44:28.549Z,37.00
2022-09-11T15:46:57.536Z,38.45
2022-09-11T15:49:28.669Z,37.12
2022-09-11T15:51:55.739Z,37.09
2022-09-11T15:54:25.107Z,37.02
2022-09-11T15:56:53.375Z,37.25
2022-09-11T15:59:20.101Z,38.83
2022-09-11T16:01:46.668Z,37.41
2022-09-11T16:04:20.101Z,37.60
2022-09-11T16:06:48.350Z,37.36
2022-09-11T16:09:18.455Z,38.06
2022-09-11T16:11:47.717Z,36.92
2022-09-11T16:14:17.708Z,37.77
2022-09-11T16:16:47.049Z,38.05
2022-09-11T16:19:15.258Z,38.00
2022-09-11T16:21:41.938Z,38.31
2022-09-11T16:24:09.879Z,37.79
2022-09-11T16:26:38.178Z,38.10
2022-09-11T16:29:08.800Z,37.72
2022-09-11T16:31:35.541Z,37.77
2022-09-11T16:34:04.136Z,37.98
2022-09-11T16:36:38.181Z,37.96
2022-09-11T16:39:11.754Z,38.22
2022-09-11T16:41:38.602Z,38.45
2022-09-11T16:44:07.224Z,38.04
2022-09-11T16:46:33.826Z,38.10
2022-09-11T16:49:02.171Z,38.10
2022-09-11T16:51:29.654Z,38.49
2022-09-11T16:53:56.872Z,38.55
2022-09-11T16:56:25.719Z,38.40
2022-09-11T16:58:52.537Z,38.80
2022-09-11T17:01:23.350Z,38.89
2022-09-11T17:03:51.716Z,39.22
2022-09-11T17:06:20.685Z,39.72
2022-09-11T17:08:50.615Z,39.60
2022-09-11T17:11:19.058Z,39.46
2022-09-11T17:13:46.556Z,39.72
2022-09-11T17:16:18.862Z,39.33
2022-09-11T17:18:50.432Z,39.72
2022-09-11T17:21:17.313Z,39.70
2022-09-11T17:23:44.138Z,40.17
2022-09-11T17:26:13.027Z,40.19
2022-09-11T17:28:40.991Z,40.58
2022-09-11T17:31:10.773Z,40.60
2022-09-11T17:33:40.114Z,40.44
2022-09-11T17:36:08.419Z,40.84
2022-09-11T17:38:35.374Z,40.51
2022-09-11T17:41:04.798Z,40.67
2022-09-11T17:43:33.188Z,40.83
2022-09-11T17:46:01.299Z,40.86
2022-09-11T17:48:28.005Z,40.62
2022-09-11T17:51:06.095Z,40.99
2022-09-11T17:53:38.485Z,40.93
2022-09-11T17:56:09.637Z,41.60
2022-09-11T17:58:37.528Z,41.63
2022-09-11T18:01:06.060Z,41.36
2022-09-11T18:03:34.260Z,41.67
2022-09-11T18:06:02.788Z,41.86
2022-09-11T18:08:31.162Z,42.38
2022-09-11T18:11:00.585Z,41.80
2022-09-11T18:13:28.946Z,42.67
2022-09-11T18:15:56.204Z,42.70
2022-09-11T18:18:23.681Z,43.11
2022-09-11T18:20:53.913Z,43.09
2022-09-11T18:23:23.174Z,43.85
2022-09-11T18:25:51.403Z,43.25
2022-09-11T18:28:20.047Z,43.25
2022-09-11T18:30:47.349Z,43.95
2022-09-11T18:33:16.636Z,43.88
2022-09-11T18:35:44.136Z,43.74
2022-09-11T18:38:10.995Z,44.54
2022-09-11T18:40:37.612Z,44.77
2022-09-11T18:43:06.209Z,45.20
2022-09-11T18:45:35.463Z,45.31
2022-09-11T18:48:03.854Z,45.92
2022-09-11T18:50:30.442Z,45.46
2022-09-11T18:52:57.035Z,45.51
2022-09-11T18:55:23.653Z,45.77
2022-09-11T18:57:50.822Z,45.95
2022-09-11T19:00:18.113Z,45.47
2022-09-11T19:02:46.682Z,45.32
2022-09-11T19:05:15.499Z,46.37
2022-09-11T19:07:43.807Z,45.96
2022-09-11T19:10:11.597Z,45.90
2022-09-11T19:12:39.389Z,46.18
2022-09-11T19:15:07.608Z,46.10
2022-09-11T19:17:35.906Z,46.22
2022-09-11T19:20:09.598Z,46.30
2022-09-11T19:22:36.224Z,46.35
2022-09-11T19:25:03.463Z,47.06
2022-09-11T19:27:31.649Z,46.26
2022-09-11T19:30:00.254Z,46.23
2022-09-11T19:32:28.061Z,46.66
2022-09-11T19:34:55.061Z,47.05
2022-09-11T19:37:21.566Z,47.34
2022-09-11T19:39:50.717Z,47.61
2022-09-11T19:42:17.806Z,46.84
2022-09-11T19:44:44.357Z,47.48
2022-09-11T19:47:11.313Z,47.17
2022-09-11T19:49:37.805Z,47.33
2022-09-11T19:52:04.371Z,46.98
2022-09-11T19:54:30.910Z,47.07
2022-09-11T19:56:57.632Z,46.57
2022-09-11T19:59:24.201Z,46.88
2022-09-11T20:01:50.774Z,46.69
2022-09-11T20:04:19.052Z,47.23
2022-09-11T20:09:30.579Z,47.13
2022-09-11T20:11:58.012Z,47.36
2022-09-11T20:14:24.509Z,47.36
2022-09-11T20:16:51.277Z,47.34
2022-09-11T20:19:17.856Z,46.61
2022-09-11T20:21:44.389Z,47.30
2022-09-11T20:24:10.880Z,47.46
2022-09-11T20:26:37.526Z,46.91
2022-09-11T20:29:07.176Z,47.10
2022-09-11T20:31:40.640Z,47.00
2022-09-11T20:34:12.920Z,47.16
2022-09-11T20:36:39.434Z,47.79
2022-09-11T20:39:06.079Z,47.82
2022-09-11T20:41:33.360Z,47.82
2022-09-11T20:44:03.532Z,47.63
2022-09-11T20:46:30.100Z,47.87
2022-09-11T20:48:56.709Z,47.91
2022-09-11T20:51:23.704Z,48.24
2022-09-11T20:53:50.559Z,48.27
2022-09-11T20:56:20.633Z,48.26
2022-09-11T20:58:47.426Z,48.27
2022-09-11T21:01:16.921Z,48.40
2022-09-11T21:03:45.885Z,47.83
2022-09-11T21:06:12.511Z,47.98
2022-09-11T21:08:40.265Z,48.30
2022-09-11T21:11:07.427Z,48.38
2022-09-11T21:13:38.357Z,48.07
2022-09-11T21:16:13.198Z,47.79
2022-09-11T21:18:44.138Z,47.83
2022-09-11T21:21:10.657Z,48.34
2022-09-11T21:23:37.211Z,48.31
2022-09-11T21:26:07.621Z,47.78
2022-09-11T21:28:34.566Z,47.88
2022-09-11T21:31:01.130Z,48.10
2022-09-11T21:33:27.978Z,48.07
2022-09-11T21:35:55.287Z,47.77
2022-09-11T21:38:30.225Z,48.37
2022-09-11T21:40:58.673Z,48.03
2022-09-11T21:43:26.108Z,47.30
2022-09-11T21:45:52.914Z,48.32
2022-09-11T21:48:19.842Z,48.15
2022-09-11T21:50:46.580Z,48.23
2022-09-11T21:53:13.196Z,47.71
2022-09-11T21:55:41.258Z,47.40
2022-09-11T21:58:08.987Z,47.36
2022-09-11T22:00:42.071Z,47.41
2022-09-11T22:03:11.175Z,47.62
2022-09-11T22:05:45.002Z,47.75
2022-09-11T22:08:13.371Z,48.21
2022-09-11T22:10:47.450Z,49.36
2022-09-11T22:13:14.938Z,48.51
2022-09-11T22:15:42.589Z,48.10
2022-09-11T22:18:09.532Z,48.00
2022-09-11T22:20:37.101Z,48.18
2022-09-11T22:23:03.809Z,48.06
2022-09-11T22:25:30.364Z,48.41
2022-09-11T22:27:57.486Z,48.52
2022-09-11T22:30:24.005Z,48.08
2022-09-11T22:32:50.750Z,48.31
2022-09-11T22:35:17.756Z,48.11
2022-09-11T22:37:44.250Z,48.23
2022-09-11T22:40:11.367Z,48.14
2022-09-11T22:42:38.694Z,48.15
2022-09-11T22:45:08.947Z,48.12
2022-09-11T22:47:35.605Z,48.10
2022-09-11T22:50:02.098Z,48.45
2022-09-11T22:52:29.131Z,47.99
2022-09-11T22:54:55.822Z,48.34
2022-09-11T22:57:22.700Z,48.55
2022-09-11T22:59:49.214Z,48.26
2022-09-11T23:02:15.909Z,48.24
2022-09-11T23:05:02.444Z,47.76
2022-09-11T23:07:29.166Z,48.17
2022-09-11T23:09:55.816Z,48.67
2022-09-11T23:12:22.562Z,48.58
2022-09-11T23:14:49.353Z,48.44
2022-09-11T23:17:16.338Z,48.63
2022-09-11T23:19:43.273Z,48.33
2022-09-11T23:22:09.782Z,48.74
2022-09-11T23:24:36.279Z,48.97
2022-09-11T23:27:02.795Z,48.84
2022-09-11T23:29:29.405Z,48.41
2022-09-11T23:31:56.568Z,48.44
2022-09-11T23:34:23.102Z,48.59
2022-09-11T23:36:49.632Z,48.86
2022-09-11T23:39:16.534Z,48.72
2022-09-11T23:41:43.058Z,48.80
2022-09-11T23:44:10.477Z,48.64
2022-09-11T23:46:38.036Z,48.75
2022-09-11T23:49:06.219Z,47.96
2022-09-11T23:51:32.782Z,48.21
2022-09-11T23:53:59.291Z,47.85
2022-09-11T23:56:25.798Z,47.82
2022-09-11T23:58:52.276Z,47.69
